Time;durP1;ratioP1;P1;durP2;ratioP2;P2;SDS_P1;SDS_P2;PMS_P1;PMS_P2;Temp;Humidity;BMP_temperature;BMP_pressure;BME280_temperature;BME280_humidity;BME280_pressure;Samples;Min_cycle;Max_cycle;Signal;HPM_P1;HPM_P2
2023/09/11 00:01:25;;;;;;;13.40;5.68;;;588.80;2150.40;;;;;;4935020;29;20051;-81
2023/09/11 00:03:50;;;;;;;20.67;8.55;;;588.80;2150.40;;;;;;4929724;29;20034;-81
2023/09/11 00:06:16;;;;;;;10.88;6.07;;;588.80;2150.40;;;;;;4935484;29;20053;-81
2023/09/11 00:08:42;;;;;;;11.15;6.50;;;588.80;2150.40;;;;;;4934702;29;20468;-82
2023/09/11 00:11:08;;;;;;;12.07;6.35;;;563.90;2176.00;;;;;;4928823;29;20039;-81
2023/09/11 00:13:33;;;;;;;13.55;6.15;;;563.80;2201.60;;;;;;4929824;29;20111;-81
2023/09/11 00:15:59;;;;;;;10.40;6.80;;;563.70;2227.20;;;;;;4934270;29;20422;-80
2023/09/11 00:18:25;;;;;;;16.23;7.30;;;563.70;2227.20;;;;;;4934081;29;20032;-83
2023/09/11 00:20:51;;;;;;;15.25;7.28;;;563.70;2227.20;;;;;;4938264;29;20062;-82
2023/09/11 00:23:17;;;;;;;12.93;5.70;;;563.80;2252.80;;;;;;4950561;29;20046;-83
2023/09/11 00:25:43;;;;;;;11.40;6.72;;;563.90;2252.80;;;;;;4934858;29;20035;-82
2023/09/11 00:28:08;;;;;;;10.13;6.85;;;564.00;2252.80;;;;;;4936146;29;20028;-82
2023/09/11 00:30:36;;;;;;;13.70;6.18;;;564.10;2227.20;;;;;;4952895;28;20030;-82
2023/09/11 00:33:02;;;;;;;11.70;6.47;;;588.80;2201.60;;;;;;4934095;29;20028;-82
2023/09/11 00:35:28;;;;;;;14.60;6.30;;;564.10;2278.40;;;;;;4958280;28;20051;-82
2023/09/11 00:37:54;;;;;;;11.48;6.88;;;563.90;2278.40;;;;;;4953495;28;20051;-81
2023/09/11 00:40:19;;;;;;;17.35;6.65;;;563.90;2304.00;;;;;;4951286;29;20467;-81
2023/09/11 00:42:45;;;;;;;15.43;5.93;;;563.80;2304.00;;;;;;4935546;29;20028;-82
2023/09/11 00:45:12;;;;;;;14.73;7.57;;;563.80;2304.00;;;;;;4934273;29;20471;-82
2023/09/11 00:47:42;;;;;;;11.95;6.57;;;563.60;2355.20;;;;;;4931260;29;20038;-83
2023/09/11 00:50:10;;;;;;;10.32;6.22;;;563.60;2355.20;;;;;;4940221;28;20027;-82
2023/09/11 00:52:36;;;;;;;12.25;6.68;;;563.50;2380.80;;;;;;4930356;29;20035;-80
2023/09/11 00:55:03;;;;;;;15.23;7.43;;;563.50;2380.80;;;;;;4926687;29;20027;-83
2023/09/11 00:57:29;;;;;;;11.63;7.30;;;563.40;2406.40;;;;;;4945766;28;20023;-82
2023/09/11 00:59:55;;;;;;;11.90;7.15;;;563.30;2432.00;;;;;;4954890;28;20038;-80
2023/09/11 01:02:21;;;;;;;10.82;7.28;;;563.30;2432.00;;;;;;4938403;29;20027;-83
2023/09/11 01:04:48;;;;;;;17.33;6.72;;;563.30;2432.00;;;;;;4936782;29;20020;-83
2023/09/11 01:07:16;;;;;;;21.38;7.18;;;538.50;2406.40;;;;;;4944969;29;20463;-82
2023/09/11 01:09:42;;;;;;;16.38;7.82;;;538.40;2406.40;;;;;;4948917;29;20020;-82
2023/09/11 01:12:08;;;;;;;13.38;7.95;;;538.30;2406.40;;;;;;4947293;28;20034;-82
2023/09/11 01:14:39;;;;;;;17.92;8.38;;;538.10;2406.40;;;;;;4941272;29;20082;-82
2023/09/11 01:17:28;;;;;;;13.18;7.32;;;538.10;2406.40;;;;;;4952639;29;20079;-82
2023/09/11 01:20:00;;;;;;;14.93;7.53;;;538.10;2406.40;;;;;;4934350;29;20544;-81
2023/09/11 01:22:37;;;;;;;15.23;7.68;;;537.90;2406.40;;;;;;4957053;28;20510;-81
2023/09/11 01:25:22;;;;;;;15.93;8.00;;;537.80;2406.40;;;;;;4927550;29;20044;-82
2023/09/11 01:28:07;;;;;;;12.55;7.55;;;512.90;2380.80;;;;;;4952650;28;20106;-82
2023/09/11 01:30:34;;;;;;;11.20;6.80;;;512.80;2380.80;;;;;;4953305;28;20035;-82
2023/09/11 01:33:00;;;;;;;15.25;7.85;;;512.60;2380.80;;;;;;4937880;29;20027;-81
2023/09/11 01:35:26;;;;;;;14.35;7.72;;;512.50;2380.80;;;;;;4955983;29;20023;-82
2023/09/11 01:37:55;;;;;;;14.70;7.63;;;512.30;2380.80;;;;;;4945252;29;20027;-82
2023/09/11 01:40:24;;;;;;;18.02;9.05;;;512.30;2380.80;;;;;;4952727;28;20027;-82
2023/09/11 01:42:54;;;;;;;17.95;8.95;;;512.20;2380.80;;;;;;4953276;29;20122;-82
2023/09/11 01:45:21;;;;;;;16.45;7.47;;;512.00;2380.80;;;;;;4937017;29;20047;-81
2023/09/11 01:47:50;;;;;;;10.02;7.13;;;487.30;2380.80;;;;;;4943377;29;20055;-82
2023/09/11 01:50:18;;;;;;;16.38;8.20;;;487.20;2380.80;;;;;;4950220;29;20023;-83
2023/09/11 01:52:46;;;;;;;15.93;7.35;;;487.10;2380.80;;;;;;4944850;29;20027;-82
2023/09/11 01:55:12;;;;;;;12.18;8.05;;;487.00;2380.80;;;;;;4936356;29;20436;-81
2023/09/11 01:57:38;;;;;;;22.65;8.45;;;486.90;2380.80;;;;;;4945657;29;20094;-82
2023/09/11 02:00:05;;;;;;;15.55;7.75;;;487.00;2380.80;;;;;;4935775;29;20535;-82
2023/09/11 02:02:31;;;;;;;15.20;8.23;;;487.00;2380.80;;;;;;4951530;28;20031;-83
2023/09/11 02:04:57;;;;;;;20.55;8.63;;;487.10;2380.80;;;;;;4945944;28;20047;-82
2023/09/11 02:07:22;;;;;;;26.45;9.07;;;487.10;2380.80;;;;;;4939223;29;20444;-82
2023/09/11 02:09:48;;;;;;;11.93;7.05;;;487.10;2380.80;;;;;;4951091;29;20476;-82
2023/09/11 02:12:14;;;;;;;14.30;8.25;;;487.10;2380.80;;;;;;4951387;29;20082;-81
2023/09/11 02:14:40;;;;;;;24.23;8.30;;;487.30;2380.80;;;;;;4940438;29;20019;-81
2023/09/11 02:17:05;;;;;;;13.35;7.53;;;487.10;2380.80;;;;;;4938115;29;20039;-81
2023/09/11 02:19:32;;;;;;;14.60;8.10;;;487.10;2380.80;;;;;;4943178;29;20596;-81
2023/09/11 02:21:58;;;;;;;11.93;7.15;;;487.10;2380.80;;;;;;4934340;29;20061;-84
2023/09/11 02:24:23;;;;;;;21.80;8.20;;;487.10;2380.80;;;;;;4940550;29;20491;-82
2023/09/11 02:26:50;;;;;;;18.50;8.38;;;487.10;2380.80;;;;;;4946485;28;20032;-81
2023/09/11 02:29:15;;;;;;;14.65;8.30;;;487.00;2380.80;;;;;;4947224;29;20023;-82
2023/09/11 02:31:41;;;;;;;15.88;8.20;;;487.00;2380.80;;;;;;4943476;28;20032;-81
2023/09/11 02:34:07;;;;;;;20.42;10.13;;;486.90;2380.80;;;;;;4939805;29;20029;-82
2023/09/11 02:36:32;;;;;;;14.25;8.25;;;487.00;2380.80;;;;;;4934847;29;20487;-79
2023/09/11 02:38:58;;;;;;;15.65;7.97;;;487.00;2380.80;;;;;;4932689;29;20087;-81
2023/09/11 02:41:24;;;;;;;15.52;7.43;;;487.00;2380.80;;;;;;4944962;29;20051;-84
2023/09/11 02:43:50;;;;;;;18.35;8.05;;;487.00;2380.80;;;;;;4935490;29;20019;-83
2023/09/11 02:46:16;;;;;;;17.02;9.45;;;487.00;2380.80;;;;;;4940562;29;20051;-81
2023/09/11 02:48:46;;;;;;;17.88;8.43;;;487.00;2380.80;;;;;;4932747;29;20047;-81
2023/09/11 02:51:13;;;;;;;14.60;8.32;;;487.00;2380.80;;;;;;4953341;28;20055;-80
2023/09/11 02:53:38;;;;;;;15.68;8.70;;;487.00;2380.80;;;;;;4946908;29;20027;-83
2023/09/11 02:56:04;;;;;;;22.80;9.45;;;486.90;2380.80;;;;;;4933670;29;20027;-83
2023/09/11 02:58:30;;;;;;;20.40;9.43;;;487.00;2380.80;;;;;;4952337;28;20074;-82
2023/09/11 03:01:03;;;;;;;24.60;10.52;;;487.00;2380.80;;;;;;4947197;28;20035;-82
2023/09/11 03:03:29;;;;;;;15.00;8.00;;;487.00;2380.80;;;;;;4938356;29;20030;-82
2023/09/11 03:06:04;;;;;;;15.02;9.20;;;487.10;2380.80;;;;;;4940298;29;20031;-81
2023/09/11 03:08:30;;;;;;;15.30;9.07;;;487.10;2380.80;;;;;;4948442;29;20027;-82
2023/09/11 03:11:05;;;;;;;17.40;8.40;;;487.10;2380.80;;;;;;4944251;29;20034;-82
2023/09/11 03:13:31;;;;;;;13.90;8.65;;;487.10;2380.80;;;;;;4935613;29;20075;-82
2023/09/11 03:16:10;;;;;;;14.02;9.15;;;487.10;2380.80;;;;;;4948365;29;20032;-82
2023/09/11 03:18:36;;;;;;;17.77;9.05;;;487.10;2380.80;;;;;;4948412;29;20030;-81
2023/09/11 03:21:05;;;;;;;16.30;9.32;;;487.10;2380.80;;;;;;4932000;29;20122;-82
2023/09/11 03:23:31;;;;;;;11.77;8.57;;;487.20;2380.80;;;;;;4943938;28;20376;-81
2023/09/11 03:25:57;;;;;;;17.17;9.25;;;487.30;2380.80;;;;;;4934348;29;20095;-82
2023/09/11 03:28:28;;;;;;;15.65;9.43;;;487.30;2380.80;;;;;;4948503;28;20042;-81
2023/09/11 03:30:54;;;;;;;19.00;9.55;;;487.30;2380.80;;;;;;4948093;28;20510;-81
2023/09/11 03:33:20;;;;;;;15.73;9.63;;;487.30;2380.80;;;;;;4947595;29;20024;-80
2023/09/11 03:35:46;;;;;;;16.20;9.07;;;487.20;2380.80;;;;;;4938423;28;20023;-81
2023/09/11 03:38:13;;;;;;;13.80;8.63;;;487.20;2380.80;;;;;;4952972;29;20028;-81
2023/09/11 03:40:39;;;;;;;16.98;8.55;;;487.20;2380.80;;;;;;4938503;28;20102;-81
2023/09/11 03:43:05;;;;;;;16.70;8.93;;;487.20;2380.80;;;;;;4948024;28;20539;-80
2023/09/11 03:45:31;;;;;;;22.95;8.75;;;487.10;2380.80;;;;;;4931004;29;20028;-83
2023/09/11 03:47:56;;;;;;;12.30;8.80;;;487.10;2380.80;;;;;;4939457;29;20372;-82
2023/09/11 03:50:22;;;;;;;20.33;9.40;;;487.10;2380.80;;;;;;4932898;29;20102;-84
2023/09/11 03:52:48;;;;;;;19.90;9.85;;;487.10;2380.80;;;;;;4935815;29;20031;-80
2023/09/11 03:55:13;;;;;;;15.48;8.82;;;487.10;2380.80;;;;;;4928854;29;20035;-82
2023/09/11 03:57:40;;;;;;;18.27;8.55;;;487.10;2380.80;;;;;;4928132;29;20028;-81
2023/09/11 04:00:07;;;;;;;18.98;9.05;;;487.10;2380.80;;;;;;4956875;28;20030;-82
2023/09/11 04:02:33;;;;;;;17.08;9.20;;;487.10;2380.80;;;;;;4929664;29;20091;-81
2023/09/11 04:04:59;;;;;;;13.63;7.55;;;487.00;2380.80;;;;;;4944794;28;20027;-81
2023/09/11 04:07:25;;;;;;;16.77;8.60;;;487.00;2380.80;;;;;;4940385;29;20034;-81
2023/09/11 04:09:51;;;;;;;19.38;8.07;;;487.00;2380.80;;;;;;4945580;29;20020;-82
2023/09/11 04:12:17;;;;;;;16.25;8.27;;;487.00;2380.80;;;;;;4932671;29;20400;-81
2023/09/11 04:14:45;;;;;;;19.77;9.07;;;487.00;2380.80;;;;;;4928517;29;20022;-83
2023/09/11 04:17:11;;;;;;;16.88;8.05;;;487.00;2380.80;;;;;;4946066;29;20031;-81
2023/09/11 04:19:38;;;;;;;16.63;7.90;;;487.00;2380.80;;;;;;4947857;29;20082;-82
2023/09/11 04:22:04;;;;;;;14.35;9.07;;;486.90;2380.80;;;;;;4950808;29;20538;-81
2023/09/11 04:24:31;;;;;;;16.70;7.70;;;486.80;2380.80;;;;;;4947568;29;20415;-81
2023/09/11 04:26:56;;;;;;;16.73;8.07;;;486.80;2380.80;;;;;;4941659;29;20036;-81
2023/09/11 04:29:22;;;;;;;17.65;8.02;;;486.80;2380.80;;;;;;4948315;29;20475;-81
2023/09/11 04:31:48;;;;;;;10.88;7.50;;;486.70;2380.80;;;;;;4931129;29;20019;-83
2023/09/11 04:34:14;;;;;;;17.25;7.15;;;486.70;2380.80;;;;;;4932905;29;20101;-81
2023/09/11 04:36:39;;;;;;;13.63;7.55;;;486.70;2380.80;;;;;;4928388;29;20472;-81
2023/09/11 04:39:05;;;;;;;19.23;7.53;;;486.60;2380.80;;;;;;4942395;29;20133;-81
2023/09/11 04:41:31;;;;;;;14.38;8.45;;;486.60;2380.80;;;;;;4951788;29;20055;-81
2023/09/11 04:43:57;;;;;;;12.25;7.10;;;486.60;2380.80;;;;;;4948740;29;20467;-81
2023/09/11 04:46:23;;;;;;;10.88;6.93;;;486.60;2380.80;;;;;;4952848;29;20122;-81
2023/09/11 04:48:49;;;;;;;16.45;7.65;;;486.60;2380.80;;;;;;4950400;28;20090;-82
2023/09/11 04:51:15;;;;;;;13.38;7.78;;;486.60;2380.80;;;;;;4948933;29;20107;-82
2023/09/11 04:53:41;;;;;;;17.58;7.32;;;486.60;2380.80;;;;;;4952930;29;20442;-82
2023/09/11 04:56:07;;;;;;;16.73;7.53;;;486.60;2380.80;;;;;;4930529;29;20119;-82
2023/09/11 04:58:33;;;;;;;14.02;7.30;;;486.70;2380.80;;;;;;4942774;29;20031;-81
2023/09/11 05:00:58;;;;;;;12.25;7.55;;;486.70;2380.80;;;;;;4940335;29;20026;-82
2023/09/11 05:03:24;;;;;;;12.32;7.20;;;486.70;2380.80;;;;;;4940807;29;20058;-82
2023/09/11 05:05:50;;;;;;;15.80;8.98;;;486.80;2380.80;;;;;;4940004;29;20058;-82
2023/09/11 05:08:16;;;;;;;20.17;7.82;;;486.80;2380.80;;;;;;4957222;29;20027;-80
2023/09/11 05:10:43;;;;;;;15.98;8.63;;;486.80;2380.80;;;;;;4940552;29;20045;-81
2023/09/11 05:13:10;;;;;;;17.88;9.00;;;486.80;2380.80;;;;;;4957459;29;20483;-83
2023/09/11 05:15:36;;;;;;;13.52;9.18;;;486.80;2380.80;;;;;;4957985;29;20059;-81
2023/09/11 05:18:02;;;;;;;15.00;7.60;;;486.80;2380.80;;;;;;4940747;29;20077;-85
2023/09/11 05:20:28;;;;;;;13.70;7.65;;;486.80;2380.80;;;;;;4940105;29;20035;-84
2023/09/11 05:22:57;;;;;;;17.88;7.78;;;486.80;2380.80;;;;;;4939899;29;20051;-81
2023/09/11 05:25:23;;;;;;;11.98;7.38;;;486.80;2380.80;;;;;;4939971;29;20051;-83
2023/09/11 05:27:49;;;;;;;11.45;8.00;;;486.80;2380.80;;;;;;4941017;29;20031;-84
2023/09/11 05:30:15;;;;;;;15.60;7.13;;;487.00;2380.80;;;;;;4937009;29;20611;-78
2023/09/11 05:32:41;;;;;;;16.40;8.75;;;486.90;2380.80;;;;;;4933218;29;20034;-81
2023/09/11 05:35:07;;;;;;;13.73;8.23;;;487.00;2380.80;;;;;;4950618;29;20027;-79
2023/09/11 05:37:33;;;;;;;16.27;7.80;;;487.00;2380.80;;;;;;4955340;28;20506;-82
2023/09/11 05:40:00;;;;;;;17.90;7.82;;;487.10;2380.80;;;;;;4947077;28;20024;-79
2023/09/11 05:42:26;;;;;;;13.02;8.43;;;487.10;2380.80;;;;;;4947613;29;20079;-81
2023/09/11 05:44:52;;;;;;;17.30;8.57;;;487.20;2380.80;;;;;;4941619;29;20087;-80
2023/09/11 05:47:18;;;;;;;13.77;7.00;;;487.30;2380.80;;;;;;4934941;29;20023;-80
2023/09/11 05:49:43;;;;;;;15.98;8.27;;;487.30;2380.80;;;;;;4936307;29;20480;-80
2023/09/11 05:52:09;;;;;;;14.57;7.88;;;512.00;2380.80;;;;;;4933612;29;20069;-82
2023/09/11 05:54:35;;;;;;;16.83;7.03;;;512.00;2380.80;;;;;;4939611;29;20035;-78
2023/09/11 05:57:05;;;;;;;16.77;7.47;;;512.10;2380.80;;;;;;4938263;29;20032;-80
2023/09/11 05:59:31;;;;;;;13.98;7.65;;;512.10;2380.80;;;;;;4951757;28;20027;-82
2023/09/11 06:01:56;;;;;;;16.15;7.90;;;512.30;2380.80;;;;;;4939850;29;20050;-81
2023/09/11 06:04:22;;;;;;;20.17;7.63;;;512.50;2380.80;;;;;;4926898;29;20488;-77
2023/09/11 06:06:48;;;;;;;13.15;6.35;;;512.70;2380.80;;;;;;4927229;29;20075;-79
2023/09/11 06:09:14;;;;;;;12.25;6.78;;;512.90;2380.80;;;;;;4932626;29;20027;-80
2023/09/11 06:11:39;;;;;;;12.48;6.38;;;537.60;2406.40;;;;;;4925400;29;20129;-80
2023/09/11 06:14:09;;;;;;;9.80;6.20;;;537.80;2406.40;;;;;;4945671;29;20027;-81
2023/09/11 06:16:34;;;;;;;16.73;7.00;;;538.00;2406.40;;;;;;4925270;29;20039;-78
2023/09/11 06:19:00;;;;;;;13.48;7.03;;;538.10;2406.40;;;;;;4935799;29;20082;-79
2023/09/11 06:21:26;;;;;;;13.43;6.80;;;538.40;2406.40;;;;;;4929927;29;20055;-79
2023/09/11 06:23:52;;;;;;;14.38;6.72;;;538.50;2406.40;;;;;;4929886;29;20173;-80
2023/09/11 06:26:18;;;;;;;14.50;6.18;;;563.20;2432.00;;;;;;4940206;29;20503;-81
2023/09/11 06:28:44;;;;;;;11.55;6.43;;;563.40;2432.00;;;;;;4937932;29;20158;-78
2023/09/11 06:31:10;;;;;;;14.13;6.00;;;563.40;2432.00;;;;;;4951290;29;20353;-79
2023/09/11 06:33:36;;;;;;;16.17;7.20;;;563.60;2432.00;;;;;;4924687;29;20064;-81
2023/09/11 06:36:03;;;;;;;13.88;7.28;;;563.70;2432.00;;;;;;4949826;29;20102;-78
2023/09/11 06:38:29;;;;;;;14.98;6.53;;;563.90;2432.00;;;;;;4952081;29;20078;-80
2023/09/11 06:40:54;;;;;;;16.85;6.88;;;564.10;2432.00;;;;;;4934693;29;20506;-78
2023/09/11 06:43:20;;;;;;;12.95;6.13;;;588.80;2432.00;;;;;;4932712;29;20027;-80
2023/09/11 06:45:51;;;;;;;11.18;6.25;;;589.10;2432.00;;;;;;4927426;29;20015;-78
2023/09/11 06:48:16;;;;;;;14.15;5.95;;;589.30;2432.00;;;;;;4944178;29;20023;-80
2023/09/11 06:50:42;;;;;;;9.02;5.78;;;589.50;2432.00;;;;;;4924090;29;20182;-79
2023/09/11 06:53:09;;;;;;;16.00;7.40;;;589.70;2432.00;;;;;;4949739;29;20039;-79
2023/09/11 06:55:35;;;;;;;22.15;6.50;;;;;;;;;;4947158;29;20042;-79
2023/09/11 06:58:02;;;;;;;10.80;5.85;;;614.60;2432.00;;;;;;4940531;29;20028;-81
2023/09/11 07:00:28;;;;;;;12.93;6.13;;;614.80;2406.40;;;;;;4954336;29;20024;-80
2023/09/11 07:02:55;;;;;;;12.98;6.03;;;615.00;2380.80;;;;;;4952534;29;20487;-77
2023/09/11 07:05:22;;;;;;;12.43;5.85;;;615.30;2355.20;;;;;;4947462;29;20031;-77
2023/09/11 07:07:48;;;;;;;17.15;5.82;;;640.10;2252.80;;;;;;4946976;29;20031;-82
2023/09/11 07:10:15;;;;;;;16.60;6.32;;;640.40;2227.20;;;;;;4936200;29;20038;-80
2023/09/11 07:12:41;;;;;;;10.32;5.32;;;640.60;2201.60;;;;;;4941863;29;20023;-81
2023/09/11 07:15:07;;;;;;;22.83;5.63;;;640.60;2124.80;;;;;;4929436;29;20031;-80
2023/09/11 07:17:33;;;;;;;10.65;5.85;;;640.80;2124.80;;;;;;4947551;29;20495;-82
2023/09/11 07:19:59;;;;;;;8.68;6.00;;;665.70;2150.40;;;;;;4931243;29;20039;-78
2023/09/11 07:22:25;;;;;;;13.90;5.20;;;665.90;2073.60;;;;;;4941776;29;20093;-79
2023/09/11 07:24:51;;;;;;;13.65;6.10;;;666.00;1971.20;;;;;;4942869;29;20052;-80
2023/09/11 07:27:17;;;;;;;10.10;5.38;;;666.20;1996.80;;;;;;4934188;29;20493;-79
2023/09/11 07:29:42;;;;;;;10.00;5.85;;;666.30;1945.60;;;;;;4931075;29;20158;-79
2023/09/11 07:32:08;;;;;;;20.45;4.75;;;691.20;1920.00;;;;;;4926715;29;20361;-80
2023/09/11 07:34:34;;;;;;;10.13;4.88;;;666.40;1920.00;;;;;;4938000;29;20089;-82
2023/09/11 07:37:00;;;;;;;8.27;4.78;;;691.40;1894.40;;;;;;4947674;29;20114;-80
2023/09/11 07:39:26;;;;;;;6.88;4.65;;;691.60;1894.40;;;;;;4934746;29;20590;-81
2023/09/11 07:41:51;;;;;;;8.45;4.50;;;691.60;1843.20;;;;;;4947776;29;20047;-81
2023/09/11 07:44:17;;;;;;;10.70;4.82;;;691.80;1792.00;;;;;;4951518;29;20379;-81
2023/09/11 07:46:43;;;;;;;9.40;5.07;;;691.80;1792.00;;;;;;4934464;29;20035;-78
2023/09/11 07:49:08;;;;;;;8.63;5.03;;;691.90;1715.20;;;;;;4929936;29;20046;-81
2023/09/11 07:51:34;;;;;;;10.80;5.20;;;716.80;1740.80;;;;;;4935669;29;20484;-77
2023/09/11 07:54:00;;;;;;;9.80;4.95;;;717.00;1689.60;;;;;;4942917;29;20028;-79
2023/09/11 07:56:25;;;;;;;9.30;5.15;;;716.90;1664.00;;;;;;4946921;29;20079;-77
2023/09/11 07:58:51;;;;;;;8.45;5.15;;;717.10;1664.00;;;;;;4926830;29;20031;-79
2023/09/11 08:01:25;;;;;;;8.23;4.63;;;717.40;1689.60;;;;;;4944045;29;20055;-78
2023/09/11 08:03:51;;;;;;;10.00;5.05;;;717.60;1664.00;;;;;;4950323;29;20034;-76
2023/09/11 08:06:18;;;;;;;7.72;4.65;;;742.40;1664.00;;;;;;4941673;29;20023;-78
2023/09/11 08:08:44;;;;;;;14.60;5.07;;;742.50;1664.00;;;;;;4937151;29;20054;-77
2023/09/11 08:11:19;;;;;;;10.63;4.60;;;742.80;1638.40;;;;;;4950491;29;20464;-77
2023/09/11 08:13:46;;;;;;;9.80;5.55;;;742.80;1561.60;;;;;;4940719;29;20075;-80
2023/09/11 08:16:13;;;;;;;12.13;5.10;;;742.80;1561.60;;;;;;4948415;29;20023;-77
2023/09/11 08:18:38;;;;;;;12.98;5.75;;;743.00;1536.00;;;;;;4941034;29;20023;-76
2023/09/11 08:21:04;;;;;;;17.85;5.20;;;743.30;1536.00;;;;;;4945468;29;20064;-77
2023/09/11 08:23:30;;;;;;;11.93;5.55;;;768.10;1536.00;;;;;;4931255;29;20043;-82
2023/09/11 08:25:57;;;;;;;9.65;4.90;;;768.10;1484.80;;;;;;4951730;29;20067;-76
2023/09/11 08:28:23;;;;;;;10.13;5.47;;;742.90;1459.20;;;;;;4951164;29;20034;-79
2023/09/11 08:30:52;;;;;;;14.18;5.70;;;768.60;1459.20;;;;;;4946210;29;20019;-79
2023/09/11 08:33:18;;;;;;;10.55;5.32;;;768.60;1408.00;;;;;;4953905;29;20447;-76
2023/09/11 08:35:43;;;;;;;10.38;5.53;;;768.80;1433.60;;;;;;4943602;29;20102;-78
2023/09/11 08:38:09;;;;;;;18.60;5.82;;;793.70;1408.00;;;;;;4939827;29;20031;-80
2023/09/11 08:40:35;;;;;;;8.05;5.00;;;793.60;1433.60;;;;;;4948234;29;20024;-78
2023/09/11 08:43:02;;;;;;;11.85;5.13;;;793.80;1408.00;;;;;;4955867;29;20042;-80
2023/09/11 08:45:28;;;;;;;23.10;5.60;;;793.70;1408.00;;;;;;4930247;29;20106;-80
2023/09/11 08:47:58;;;;;;;14.68;5.22;;;793.80;1433.60;;;;;;4946429;29;20031;-79
2023/09/11 08:50:32;;;;;;;15.55;5.35;;;793.70;1433.60;;;;;;4947651;29;20035;-79
2023/09/11 08:53:00;;;;;;;12.10;5.03;;;794.20;1356.80;;;;;;4954543;29;20038;-81
2023/09/11 08:55:29;;;;;;;11.15;5.07;;;819.30;1356.80;;;;;;4951768;29;20102;-81
2023/09/11 08:57:59;;;;;;;11.52;4.97;;;819.50;1331.20;;;;;;4949694;29;20047;-80
2023/09/11 09:00:27;;;;;;;9.02;5.43;;;819.20;1305.60;;;;;;4938264;29;20035;-79
2023/09/11 09:02:53;;;;;;;8.32;4.35;;;819.50;1280.00;;;;;;4952933;29;20058;-80
2023/09/11 09:05:21;;;;;;;8.85;4.40;;;819.30;1280.00;;;;;;4943776;29;20403;-81
2023/09/11 09:07:48;;;;;;;10.38;5.18;;;819.60;1254.40;;;;;;4931641;29;20400;-79
2023/09/11 09:10:14;;;;;;;10.63;4.65;;;819.50;1280.00;;;;;;4946468;29;20020;-78
2023/09/11 09:12:41;;;;;;;8.50;4.65;;;819.80;1228.80;;;;;;4947342;29;20283;-80
2023/09/11 09:15:07;;;;;;;11.50;4.65;;;820.10;1254.40;;;;;;4933863;29;20387;-79
2023/09/11 09:17:33;;;;;;;9.50;4.53;;;844.90;1254.40;;;;;;4952078;29;20032;-78
2023/09/11 09:19:58;;;;;;;9.45;4.55;;;844.90;1228.80;;;;;;4940274;29;20094;-80
2023/09/11 09:22:24;;;;;;;11.13;4.45;;;845.00;1203.20;;;;;;4948155;29;20506;-80
2023/09/11 09:24:52;;;;;;;11.07;4.38;;;844.80;1228.80;;;;;;4947372;29;20040;-80
2023/09/11 09:27:19;;;;;;;10.65;4.50;;;844.90;1203.20;;;;;;4945199;29;20519;-80
2023/09/11 09:29:45;;;;;;;5.78;4.50;;;845.10;1203.20;;;;;;4937631;29;20486;-80
2023/09/11 09:32:11;;;;;;;10.75;4.20;;;845.00;1228.80;;;;;;4945283;29;20436;-80
2023/09/11 09:34:49;;;;;;;13.70;4.88;;;845.20;1177.60;;;;;;4927102;29;20020;-82
2023/09/11 09:37:16;;;;;;;10.43;4.60;;;845.50;1126.40;;;;;;4942674;29;20036;-81
2023/09/11 09:39:43;;;;;;;10.45;3.80;;;845.50;1152.00;;;;;;4947267;29;20019;-81
2023/09/11 09:42:10;;;;;;;8.80;4.35;;;870.40;1152.00;;;;;;4948719;29;20036;-80
2023/09/11 09:44:41;;;;;;;7.75;4.05;;;845.70;1152.00;;;;;;4940076;29;20035;-81
2023/09/11 09:47:15;;;;;;;9.57;4.25;;;845.20;1152.00;;;;;;4946738;29;20471;-75
2023/09/11 09:49:44;;;;;;;12.47;5.30;;;845.40;1177.60;;;;;;4947307;29;20062;-76
2023/09/11 09:52:10;;;;;;;8.30;3.88;;;845.50;1177.60;;;;;;4947429;29;20431;-78
2023/09/11 09:54:51;;;;;;;9.88;4.20;;;845.40;1177.60;;;;;;4941915;29;20098;-78
2023/09/11 09:57:20;;;;;;;8.43;4.32;;;845.50;1152.00;;;;;;4937515;29;20027;-77
2023/09/11 09:59:52;;;;;;;10.70;4.25;;;845.50;1126.40;;;;;;4950980;29;20424;-78
2023/09/11 10:02:32;;;;;;;6.03;3.67;;;845.40;1152.00;;;;;;4942622;29;20032;-78
2023/09/11 10:05:07;;;;;;;8.13;3.63;;;870.40;1177.60;;;;;;4944766;29;20024;-78
2023/09/11 10:07:41;;;;;;;9.13;4.85;;;845.40;1152.00;;;;;;4943069;29;20027;-79
2023/09/11 10:10:27;;;;;;;7.80;4.85;;;870.50;1126.40;;;;;;4938241;29;20028;-81
2023/09/11 10:13:15;;;;;;;12.07;5.18;;;870.50;1152.00;;;;;;4931302;29;20031;-81
2023/09/11 10:15:42;;;;;;;9.88;4.20;;;870.90;1100.80;;;;;;4929604;29;20024;-78
2023/09/11 10:18:10;;;;;;;10.25;4.75;;;870.90;1075.20;;;;;;4947232;29;20020;-78
2023/09/11 10:20:36;;;;;;;7.20;4.65;;;871.20;1075.20;;;;;;4948478;29;20035;-79
2023/09/11 10:23:04;;;;;;;8.30;4.70;;;871.10;1100.80;;;;;;4948864;29;20046;-78
2023/09/11 10:25:33;;;;;;;12.38;4.05;;;871.10;1126.40;;;;;;4949191;29;20040;-80
2023/09/11 10:28:08;;;;;;;6.70;4.47;;;871.30;1075.20;;;;;;4937299;29;20031;-78
2023/09/11 10:31:09;;;;;;;6.50;3.97;;;871.30;1100.80;;;;;;4951685;29;20016;-77
2023/09/11 10:33:37;;;;;;;9.05;3.90;;;871.10;1100.80;;;;;;4942662;29;20475;-78
2023/09/11 10:36:13;;;;;;;10.25;4.20;;;896.10;1049.60;;;;;;4939009;29;20027;-79
2023/09/11 10:38:41;;;;;;;9.57;4.47;;;896.10;1075.20;;;;;;4952462;29;20030;-80
2023/09/11 10:41:08;;;;;;;12.05;4.68;;;896.10;1075.20;;;;;;4933414;29;20051;-81
2023/09/11 10:43:34;;;;;;;9.50;4.88;;;871.30;1100.80;;;;;;4929748;29;20373;-81
2023/09/11 10:46:21;;;;;;;8.32;3.95;;;871.30;1100.80;;;;;;4932871;29;20023;-83
2023/09/11 10:48:48;;;;;;;11.38;4.47;;;871.30;1100.80;;;;;;4945826;29;20035;-83
2023/09/11 10:51:14;;;;;;;7.90;4.68;;;896.20;1075.20;;;;;;4952919;29;20023;-81
2023/09/11 10:53:41;;;;;;;16.67;5.22;;;871.30;1075.20;;;;;;4936777;29;20180;-82
2023/09/11 10:56:07;;;;;;;10.70;4.80;;;896.20;1049.60;;;;;;4953798;29;20492;-83
2023/09/11 10:58:34;;;;;;;8.38;4.15;;;896.50;1075.20;;;;;;4932883;29;20403;-81
2023/09/11 11:01:03;;;;;;;10.07;4.80;;;896.10;1049.60;;;;;;4936976;29;20067;-78
2023/09/11 11:03:30;;;;;;;10.52;4.60;;;896.50;1075.20;;;;;;4922268;29;20480;-84
2023/09/11 11:05:58;;;;;;;7.82;4.10;;;896.50;1049.60;;;;;;4945200;29;20501;-78
2023/09/11 11:08:24;;;;;;;10.63;4.70;;;896.90;1075.20;;;;;;4939144;29;20024;-81
2023/09/11 11:10:52;;;;;;;9.48;4.10;;;896.80;1075.20;;;;;;4933633;29;20023;-79
2023/09/11 11:13:18;;;;;;;7.78;4.97;;;896.80;1024.00;;;;;;4944653;29;20475;-80
2023/09/11 11:15:44;;;;;;;8.27;4.88;;;896.90;1024.00;;;;;;4952583;29;20468;-80
2023/09/11 11:18:12;;;;;;;13.27;5.07;;;896.70;1075.20;;;;;;4940996;29;20107;-79
2023/09/11 11:21:05;;;;;;;6.53;4.10;;;896.60;1049.60;;;;;;4938877;29;20116;-80
2023/09/11 11:23:33;;;;;;;7.32;4.30;;;921.60;1075.20;;;;;;4942544;29;20142;-80
2023/09/11 11:26:06;;;;;;;9.68;4.43;;;921.60;1049.60;;;;;;4946262;29;20036;-76
2023/09/11 11:28:45;;;;;;;8.75;4.15;;;896.90;1049.60;;;;;;4943003;29;21029;-77
2023/09/11 11:31:20;;;;;;;8.57;4.53;;;896.90;1024.00;;;;;;4944348;29;20094;-78
2023/09/11 11:33:47;;;;;;;14.75;4.80;;;896.60;1049.60;;;;;;4945173;29;20075;-75
2023/09/11 11:36:14;;;;;;;9.43;4.18;;;921.70;1049.60;;;;;;4950821;29;20106;-78
2023/09/11 11:38:42;;;;;;;8.77;4.60;;;896.90;1049.60;;;;;;4941318;29;20484;-78
2023/09/11 11:41:08;;;;;;;7.45;4.80;;;896.70;998.40;;;;;;4933283;29;20059;-77
2023/09/11 11:43:34;;;;;;;11.70;4.60;;;896.90;1075.20;;;;;;4950650;29;20024;-79
2023/09/11 11:46:01;;;;;;;11.32;4.35;;;896.10;1049.60;;;;;;4951607;29;20020;-82
2023/09/11 11:48:27;;;;;;;6.15;3.70;;;896.50;1024.00;;;;;;4947231;29;20031;-82
2023/09/11 11:50:54;;;;;;;8.68;4.38;;;896.70;1024.00;;;;;;4949649;29;20487;-77
2023/09/11 11:53:22;;;;;;;9.13;4.03;;;921.70;1049.60;;;;;;4950025;29;20035;-77
2023/09/11 11:55:50;;;;;;;11.65;4.63;;;921.70;1049.60;;;;;;4945186;29;20031;-80
2023/09/11 11:58:16;;;;;;;9.75;4.65;;;921.70;1075.20;;;;;;4951004;29;20038;-82
2023/09/11 12:01:01;;;;;;;7.80;5.15;;;896.50;1049.60;;;;;;4948744;29;20025;-80
2023/09/11 12:03:29;;;;;;;9.02;4.53;;;921.60;1049.60;;;;;;4949000;29;20059;-76
2023/09/11 12:05:57;;;;;;;9.18;4.43;;;921.90;1075.20;;;;;;4948582;29;20027;-76
2023/09/11 12:08:23;;;;;;;6.97;4.72;;;896.80;1024.00;;;;;;4953834;29;21613;-78
2023/09/11 12:10:50;;;;;;;8.73;5.15;;;896.70;1075.20;;;;;;4942626;29;20113;-77
2023/09/11 12:13:17;;;;;;;8.05;4.30;;;896.50;1075.20;;;;;;4945934;29;20035;-75